createdAt,value
2017-06-09T00:00:28.081Z,20.17
2017-06-09T00:01:08.566Z,20.05
2017-06-09T00:01:49.099Z,20.1
2017-06-09T00:02:29.573Z,20.06
2017-06-09T00:03:10.093Z,20.11
2017-06-09T00:03:50.589Z,20.11
2017-06-09T00:04:31.124Z,20.06
2017-06-09T00:05:11.600Z,20.06
2017-06-09T00:05:52.118Z,20.14
2017-06-09T00:06:32.620Z,20.11
2017-06-09T00:07:13.094Z,20.08
2017-06-09T00:07:53.575Z,20.16
2017-06-09T00:08:34.086Z,20.14
2017-06-09T00:09:14.594Z,20.06
2017-06-09T00:09:57.938Z,20.02
2017-06-09T00:10:35.640Z,20.08
2017-06-09T00:11:16.119Z,20.08
2017-06-09T00:11:56.760Z,19.98
2017-06-09T00:12:37.191Z,20.03
2017-06-09T00:13:17.646Z,20.06
2017-06-09T00:13:58.114Z,20.08
2017-06-09T00:14:38.645Z,20.13
2017-06-09T00:15:19.133Z,20.06
2017-06-09T00:15:59.650Z,20.05
2017-06-09T00:16:40.111Z,19.98
2017-06-09T00:17:20.590Z,19.96
2017-06-09T00:18:01.082Z,19.98
2017-06-09T00:18:41.606Z,19.92
2017-06-09T00:19:22.108Z,19.98
2017-06-09T00:20:02.602Z,19.91
2017-06-09T00:20:43.103Z,19.95
2017-06-09T00:21:23.701Z,19.95
2017-06-09T00:22:04.188Z,19.92
2017-06-09T00:22:44.658Z,19.98
2017-06-09T00:23:25.157Z,19.95
2017-06-09T00:24:05.680Z,19.88
2017-06-09T00:24:46.233Z,19.94
2017-06-09T00:25:26.620Z,19.92
2017-06-09T00:26:07.124Z,19.91
2017-06-09T00:26:47.606Z,19.96
2017-06-09T00:27:28.087Z,19.95
2017-06-09T00:28:08.615Z,19.99
2017-06-09T00:28:49.076Z,19.95
2017-06-09T00:29:29.559Z,19.92
2017-06-09T00:30:10.042Z,19.96
2017-06-09T00:30:50.539Z,19.92
2017-06-09T00:31:31.047Z,19.95
2017-06-09T00:32:11.540Z,19.92
2017-06-09T00:32:52.046Z,19.94
2017-06-09T00:33:32.528Z,19.88
2017-06-09T00:34:13.012Z,19.96
2017-06-09T00:34:53.531Z,20.01
2017-06-09T00:35:34.044Z,19.91
2017-06-09T00:36:14.613Z,19.94
2017-06-09T00:36:55.132Z,19.91
2017-06-09T00:37:35.594Z,19.81
2017-06-09T00:38:16.119Z,19.86
2017-06-09T00:38:56.638Z,19.81
2017-06-09T00:39:37.158Z,19.91
2017-06-09T00:40:17.711Z,19.84
2017-06-09T00:40:58.205Z,19.88
2017-06-09T00:41:38.659Z,19.86
2017-06-09T00:42:19.174Z,19.81
2017-06-09T00:42:59.688Z,19.98
2017-06-09T00:43:40.185Z,19.84
2017-06-09T00:44:20.738Z,19.92
2017-06-09T00:45:01.261Z,19.87
2017-06-09T00:45:41.714Z,19.88
2017-06-09T00:46:22.202Z,19.87
2017-06-09T00:47:02.734Z,19.84
2017-06-09T00:47:43.244Z,19.84
2017-06-09T00:48:23.702Z,19.86
2017-06-09T00:49:04.280Z,19.81
2017-06-09T00:49:44.778Z,19.81
2017-06-09T00:50:25.274Z,19.83
2017-06-09T00:51:05.752Z,19.8
2017-06-09T00:51:46.262Z,19.81
2017-06-09T00:52:26.752Z,19.81
2017-06-09T00:53:07.222Z,19.87
2017-06-09T00:53:47.752Z,19.87
2017-06-09T00:54:28.259Z,19.8
2017-06-09T00:55:08.725Z,19.81
2017-06-09T00:55:49.273Z,19.76
2017-06-09T00:56:29.717Z,19.78
2017-06-09T00:57:10.178Z,19.76
2017-06-09T00:57:50.652Z,19.8
2017-06-09T00:58:31.203Z,19.73
2017-06-09T00:59:11.728Z,19.73
2017-06-09T00:59:52.180Z,19.76
2017-06-09T01:00:32.723Z,19.74
2017-06-09T01:01:13.180Z,19.65
2017-06-09T01:01:53.699Z,19.76
2017-06-09T01:02:34.197Z,19.77
2017-06-09T01:03:14.680Z,19.65
2017-06-09T01:03:55.219Z,19.73
2017-06-09T01:04:35.747Z,19.76
2017-06-09T01:05:16.255Z,19.77
2017-06-09T01:05:56.749Z,19.77
2017-06-09T01:06:37.210Z,19.68
2017-06-09T01:07:17.764Z,19.74
2017-06-09T01:07:58.197Z,19.77
2017-06-09T01:08:38.681Z,19.78
2017-06-09T01:09:19.161Z,19.76
2017-06-09T01:09:59.652Z,19.73
2017-06-09T01:10:40.150Z,19.65
2017-06-09T01:11:20.636Z,19.81
2017-06-09T01:12:01.120Z,19.78
2017-06-09T01:12:41.616Z,19.77
2017-06-09T01:13:22.155Z,19.77
2017-06-09T01:14:02.598Z,19.68
2017-06-09T01:14:43.088Z,19.61
2017-06-09T01:15:23.614Z,19.62
2017-06-09T01:16:04.104Z,19.63
2017-06-09T01:16:44.647Z,19.63
2017-06-09T01:17:25.092Z,19.56
2017-06-09T01:18:05.548Z,19.62
2017-06-09T01:18:46.076Z,19.62
2017-06-09T01:19:26.580Z,19.59
2017-06-09T01:20:07.029Z,19.58
2017-06-09T01:20:47.497Z,19.56
2017-06-09T01:21:28.059Z,19.56
2017-06-09T01:22:08.535Z,19.56
2017-06-09T01:22:49.047Z,19.63
2017-06-09T01:23:29.518Z,19.56
2017-06-09T01:24:10.067Z,19.56
2017-06-09T01:24:50.517Z,19.68
2017-06-09T01:25:30.993Z,19.55
2017-06-09T01:26:11.504Z,19.56
2017-06-09T01:26:52.056Z,19.61
2017-06-09T01:27:32.529Z,19.56
2017-06-09T01:28:13.009Z,19.5
2017-06-09T01:28:53.617Z,19.44
2017-06-09T01:29:34.031Z,19.41
2017-06-09T01:30:14.543Z,19.41
2017-06-09T01:30:55.008Z,19.47
2017-06-09T01:31:35.534Z,19.41
2017-06-09T01:32:16.017Z,19.41
2017-06-09T01:32:56.528Z,19.39
2017-06-09T01:33:37.065Z,19.41
2017-06-09T01:34:17.472Z,19.41
2017-06-09T01:34:58.006Z,19.43
2017-06-09T01:35:38.505Z,19.44
2017-06-09T01:36:18.993Z,19.33
2017-06-09T01:36:59.484Z,19.41
2017-06-09T01:37:39.969Z,19.46
2017-06-09T01:38:20.505Z,19.39
2017-06-09T01:39:00.978Z,19.39
2017-06-09T01:39:41.478Z,19.39
2017-06-09T01:40:21.938Z,19.37
2017-06-09T01:41:02.451Z,19.33
2017-06-09T01:41:42.965Z,19.4
2017-06-09T01:42:23.456Z,19.39
2017-06-09T01:43:03.956Z,19.39
2017-06-09T01:43:44.470Z,19.31
2017-06-09T01:44:24.966Z,19.32
2017-06-09T01:45:05.456Z,19.25
2017-06-09T01:45:45.907Z,19.23
2017-06-09T01:46:26.469Z,19.23
2017-06-09T01:47:06.964Z,19.19
2017-06-09T01:47:47.512Z,19.37
2017-06-09T01:48:28.020Z,19.29
2017-06-09T01:49:08.537Z,19.32
2017-06-09T01:49:49.007Z,19.32
2017-06-09T01:50:29.502Z,19.21
2017-06-09T01:51:09.961Z,19.31
2017-06-09T01:51:50.487Z,19.32
2017-06-09T01:52:30.949Z,19.21
2017-06-09T01:53:11.450Z,19.21
2017-06-09T01:53:51.929Z,19.22
2017-06-09T01:54:32.479Z,19.39
2017-06-09T01:55:12.918Z,19.29
2017-06-09T01:55:53.462Z,19.28
2017-06-09T01:56:33.912Z,19.16
2017-06-09T01:57:14.437Z,19.26
2017-06-09T01:57:54.928Z,19.28
2017-06-09T01:58:35.397Z,19.14
2017-06-09T01:59:15.894Z,19.23
2017-06-09T01:59:56.414Z,19.23
2017-06-09T02:00:36.904Z,19.26
2017-06-09T02:01:17.398Z,19.16
2017-06-09T02:01:57.892Z,19.22
2017-06-09T02:02:38.427Z,19.21
2017-06-09T02:03:18.931Z,19.13
2017-06-09T02:03:59.390Z,19.11
2017-06-09T02:04:39.870Z,19.07
2017-06-09T02:05:20.423Z,19.16
2017-06-09T02:06:00.856Z,19.16
2017-06-09T02:06:41.347Z,19.18
2017-06-09T02:07:21.860Z,19.08
2017-06-09T02:08:02.344Z,19.13
2017-06-09T02:08:42.846Z,19.11
2017-06-09T02:09:23.432Z,19.19
2017-06-09T02:10:03.887Z,19.1
2017-06-09T02:10:44.371Z,19.13
2017-06-09T02:11:24.903Z,19.16
2017-06-09T02:12:05.540Z,19.16
2017-06-09T02:12:46.040Z,19.21
2017-06-09T02:13:26.556Z,19.21
2017-06-09T02:14:07.029Z,19.14
2017-06-09T02:14:47.547Z,19.13
2017-06-09T02:15:28.036Z,19.18
2017-06-09T02:16:08.503Z,19.14
2017-06-09T02:16:49.924Z,19.18
2017-06-09T02:17:30.414Z,19.11
2017-06-09T02:18:10.879Z,19.16
2017-06-09T02:18:51.376Z,19.13
2017-06-09T02:19:31.946Z,19.19
2017-06-09T02:20:12.442Z,19.16
2017-06-09T02:20:52.951Z,19.21
2017-06-09T02:21:33.414Z,19.16
2017-06-09T02:22:13.911Z,19.14
2017-06-09T02:22:54.353Z,19.21
2017-06-09T02:23:34.858Z,19.14
2017-06-09T02:24:15.555Z,19.13
2017-06-09T02:24:56.063Z,19.19
2017-06-09T02:25:36.610Z,19.19
2017-06-09T02:26:17.061Z,19.16
2017-06-09T02:26:57.631Z,19.16
2017-06-09T02:27:38.105Z,19.18
2017-06-09T02:28:18.640Z,19.26
2017-06-09T02:28:59.130Z,19.14
2017-06-09T02:29:39.645Z,19.19
2017-06-09T02:30:20.101Z,19.16
2017-06-09T02:31:00.682Z,19.18
2017-06-09T02:31:41.160Z,19.13
2017-06-09T02:32:21.652Z,19.21
2017-06-09T02:33:02.134Z,19.14
2017-06-09T02:33:42.668Z,19.13
2017-06-09T02:34:23.160Z,19.21
2017-06-09T02:35:03.605Z,19.11
2017-06-09T02:35:44.106Z,19.04
2017-06-09T02:36:24.645Z,19.13
2017-06-09T02:37:05.164Z,19.1
2017-06-09T02:37:45.705Z,19.11
2017-06-09T02:38:26.212Z,19.02
2017-06-09T02:39:06.663Z,19.07
2017-06-09T02:39:47.187Z,19.02
2017-06-09T02:40:27.723Z,19.06
2017-06-09T02:41:08.195Z,19.06
2017-06-09T02:41:48.668Z,19
2017-06-09T02:42:29.168Z,19
2017-06-09T02:43:09.626Z,19.04
2017-06-09T02:43:50.119Z,19.14
2017-06-09T02:44:30.564Z,19
2017-06-09T02:45:11.085Z,19.1
2017-06-09T02:45:51.591Z,19
2017-06-09T02:46:32.128Z,19.07
2017-06-09T02:47:12.575Z,19
2017-06-09T02:47:53.059Z,18.99
2017-06-09T02:48:33.566Z,18.92
2017-06-09T02:49:14.100Z,18.87
2017-06-09T02:49:54.577Z,18.99
2017-06-09T02:50:35.113Z,18.95
2017-06-09T02:51:15.578Z,18.87
2017-06-09T02:51:56.069Z,18.84
2017-06-09T02:52:36.542Z,18.85
2017-06-09T02:53:17.051Z,18.92
2017-06-09T02:53:57.561Z,18.92
2017-06-09T02:54:38.087Z,18.9
2017-06-09T02:55:18.714Z,18.9
2017-06-09T02:55:59.184Z,18.81
2017-06-09T02:56:39.696Z,18.82
2017-06-09T02:57:20.143Z,18.81
2017-06-09T02:58:00.699Z,18.82
2017-06-09T02:58:41.221Z,18.84
2017-06-09T02:59:21.734Z,18.7
2017-06-09T03:00:02.183Z,18.85
2017-06-09T03:00:42.694Z,18.82
2017-06-09T03:01:23.199Z,18.7
2017-06-09T03:02:03.725Z,18.72
2017-06-09T03:02:44.189Z,18.6
2017-06-09T03:03:24.700Z,18.72
2017-06-09T03:04:05.185Z,18.73
2017-06-09T03:04:45.722Z,18.76
2017-06-09T03:05:26.218Z,18.8
2017-06-09T03:06:06.714Z,18.78
2017-06-09T03:06:47.178Z,18.75
2017-06-09T03:07:27.701Z,18.87
2017-06-09T03:08:08.176Z,18.81
2017-06-09T03:08:48.639Z,18.78
2017-06-09T03:09:29.117Z,18.84
2017-06-09T03:10:09.626Z,18.85
2017-06-09T03:10:50.115Z,18.84
2017-06-09T03:11:30.728Z,18.82
2017-06-09T03:12:11.298Z,18.8
2017-06-09T03:12:51.741Z,18.72
2017-06-09T03:13:32.232Z,18.81
2017-06-09T03:14:12.696Z,18.82
2017-06-09T03:14:53.182Z,18.78
2017-06-09T03:15:33.673Z,18.72
2017-06-09T03:16:14.211Z,18.73
2017-06-09T03:16:54.676Z,18.82
2017-06-09T03:17:35.162Z,18.82
2017-06-09T03:18:15.668Z,18.84
2017-06-09T03:18:56.187Z,18.88
2017-06-09T03:19:36.688Z,18.81
2017-06-09T03:20:17.203Z,18.98
2017-06-09T03:20:57.704Z,18.78
2017-06-09T03:21:38.208Z,18.87
2017-06-09T03:22:21.265Z,18.9
2017-06-09T03:23:01.306Z,18.92
2017-06-09T03:23:41.830Z,18.98
2017-06-09T03:24:22.359Z,18.84
2017-06-09T03:25:02.860Z,18.84
2017-06-09T03:25:43.330Z,18.82
2017-06-09T03:26:23.881Z,18.9
2017-06-09T03:27:04.357Z,18.85
2017-06-09T03:27:44.867Z,18.92
2017-06-09T03:28:25.410Z,18.92
2017-06-09T03:29:05.895Z,18.87
2017-06-09T03:29:46.395Z,18.91
2017-06-09T03:30:26.871Z,18.88
2017-06-09T03:31:07.385Z,18.91
2017-06-09T03:31:47.837Z,18.98
2017-06-09T03:32:28.349Z,18.99
2017-06-09T03:33:08.793Z,18.98
2017-06-09T03:33:49.319Z,18.95
2017-06-09T03:34:29.932Z,18.98
2017-06-09T03:35:10.413Z,19.06
2017-06-09T03:35:50.996Z,19.04
2017-06-09T03:36:31.422Z,18.94
2017-06-09T03:37:11.916Z,18.99
2017-06-09T03:37:52.406Z,18.99
2017-06-09T03:38:32.932Z,18.99
2017-06-09T03:39:13.361Z,18.92
2017-06-09T03:39:53.921Z,18.99
2017-06-09T03:40:34.469Z,18.88
2017-06-09T03:41:14.966Z,18.92
2017-06-09T03:41:55.493Z,18.92
2017-06-09T03:42:36.005Z,18.94
2017-06-09T03:43:16.528Z,18.95
2017-06-09T03:43:57.086Z,18.92
2017-06-09T03:44:37.554Z,18.84
2017-06-09T03:45:18.008Z,18.88
2017-06-09T03:45:58.542Z,18.88
2017-06-09T03:46:39.041Z,18.94
2017-06-09T03:47:19.507Z,18.98
2017-06-09T03:48:00.000Z,18.88
2017-06-09T03:48:40.501Z,18.66
2017-06-09T03:49:20.951Z,18.69
2017-06-09T03:50:01.497Z,18.65
2017-06-09T03:50:41.968Z,18.65
2017-06-09T03:51:22.445Z,18.65
2017-06-09T03:52:02.992Z,18.62
2017-06-09T03:52:43.469Z,18.63
2017-06-09T03:53:23.954Z,18.58
2017-06-09T03:54:04.434Z,18.39
2017-06-09T03:54:44.941Z,18.39
2017-06-09T03:55:25.436Z,18.35
2017-06-09T03:56:05.959Z,18.2
2017-06-09T03:56:46.411Z,17.97
2017-06-09T03:57:26.903Z,18.03
2017-06-09T03:58:07.385Z,18.03
2017-06-09T03:58:47.870Z,17.92
2017-06-09T03:59:28.340Z,17.84
2017-06-09T04:00:08.841Z,17.92
2017-06-09T04:00:49.428Z,17.86
2017-06-09T04:01:29.935Z,17.82
2017-06-09T04:02:10.430Z,17.82
2017-06-09T04:02:50.912Z,17.86
2017-06-09T04:03:31.398Z,17.97
2017-06-09T04:04:11.934Z,18.07
2017-06-09T04:04:52.417Z,18.2
2017-06-09T04:05:32.876Z,18.25
2017-06-09T04:06:13.408Z,18.39
2017-06-09T04:06:53.898Z,18.36
2017-06-09T04:07:34.407Z,18.42
2017-06-09T04:08:14.896Z,18.44
2017-06-09T04:08:55.409Z,18.5
2017-06-09T04:09:35.933Z,18.39
2017-06-09T04:10:16.395Z,18.42
2017-06-09T04:10:56.904Z,18.5
2017-06-09T04:11:37.439Z,18.54
2017-06-09T04:12:17.909Z,18.51
2017-06-09T04:12:58.397Z,18.48
2017-06-09T04:13:38.944Z,18.48
2017-06-09T04:14:19.402Z,18.41
2017-06-09T04:14:59.966Z,18.45
2017-06-09T04:15:40.507Z,18.3
2017-06-09T04:16:20.938Z,18.29
2017-06-09T04:17:01.431Z,18.25
2017-06-09T04:17:41.885Z,18.3
2017-06-09T04:18:22.397Z,18.33
2017-06-09T04:19:02.900Z,18.32
2017-06-09T04:19:43.428Z,18.25
2017-06-09T04:20:23.930Z,18.18
2017-06-09T04:21:04.559Z,18.29
2017-06-09T04:21:45.104Z,18.25
2017-06-09T04:22:25.649Z,18.27
2017-06-09T04:23:06.150Z,18.3
2017-06-09T04:23:46.637Z,18.2
2017-06-09T04:24:27.133Z,18.11
2017-06-09T04:25:07.639Z,18.21
2017-06-09T04:25:48.130Z,18.33
2017-06-09T04:26:28.608Z,18.41
2017-06-09T04:27:09.104Z,18.42
2017-06-09T04:27:49.770Z,18.44
2017-06-09T04:28:30.248Z,18.37
2017-06-09T04:29:10.757Z,18.39
2017-06-09T04:29:51.235Z,18.57
2017-06-09T04:30:31.784Z,18.5
2017-06-09T04:31:12.638Z,18.55
2017-06-09T04:31:53.189Z,18.72
2017-06-09T04:32:33.667Z,18.78
2017-06-09T04:33:14.202Z,18.67
2017-06-09T04:33:54.683Z,18.67
2017-06-09T04:34:35.362Z,18.67
2017-06-09T04:35:15.845Z,18.8
2017-06-09T04:35:56.397Z,18.9
2017-06-09T04:36:36.851Z,19.06
2017-06-09T04:37:17.399Z,19.13
2017-06-09T04:37:57.848Z,19.28
2017-06-09T04:38:38.337Z,20.13
2017-06-09T04:39:18.882Z,21.74
2017-06-09T04:39:59.363Z,23.54
2017-06-09T04:40:39.850Z,24.24
2017-06-09T04:41:20.334Z,23.8
2017-06-09T04:42:00.831Z,22.83
2017-06-09T04:42:41.328Z,22.21
2017-06-09T04:43:21.842Z,21.74
2017-06-09T04:44:02.337Z,21.61
2017-06-09T04:44:42.834Z,21.44
2017-06-09T04:45:23.353Z,21.34
2017-06-09T04:46:03.850Z,21.13
2017-06-09T04:46:44.400Z,21.01
2017-06-09T04:47:24.834Z,20.8
2017-06-09T04:48:05.410Z,20.72
2017-06-09T04:48:45.911Z,20.57
2017-06-09T04:49:26.391Z,20.57
2017-06-09T04:50:06.888Z,20.5
2017-06-09T04:50:47.370Z,20.43
2017-06-09T04:51:27.887Z,20.38
2017-06-09T04:52:08.385Z,20.42
2017-06-09T04:52:48.947Z,20.62
2017-06-09T04:53:29.507Z,20.84
2017-06-09T04:54:10.051Z,20.91
2017-06-09T04:54:50.464Z,20.91
2017-06-09T04:55:30.941Z,20.74
2017-06-09T04:56:11.432Z,20.58
2017-06-09T04:56:51.929Z,20.47
2017-06-09T04:57:32.419Z,20.54
2017-06-09T04:58:12.933Z,20.42
2017-06-09T04:58:53.374Z,20.32
2017-06-09T04:59:33.902Z,20.26
2017-06-09T05:00:14.417Z,20.23
2017-06-09T05:00:54.874Z,20.17
2017-06-09T05:01:35.386Z,20.14
2017-06-09T05:02:15.886Z,20.05
2017-06-09T05:02:56.410Z,19.94
2017-06-09T05:03:36.931Z,19.92
2017-06-09T05:04:17.394Z,19.96
2017-06-09T05:04:57.950Z,20.06
2017-06-09T05:05:38.458Z,20.02
2017-06-09T05:06:18.944Z,19.98
2017-06-09T05:06:59.419Z,19.91
2017-06-09T05:07:39.936Z,19.86
2017-06-09T05:08:20.419Z,19.84
2017-06-09T05:09:00.915Z,19.8
2017-06-09T05:09:41.402Z,19.83
2017-06-09T05:10:21.839Z,19.83
2017-06-09T05:11:02.351Z,19.84
2017-06-09T05:11:42.872Z,19.87
2017-06-09T05:12:23.394Z,19.76
2017-06-09T05:13:03.922Z,19.83
2017-06-09T05:13:44.470Z,19.76
2017-06-09T05:14:24.948Z,19.84
2017-06-09T05:15:05.436Z,19.98
2017-06-09T05:15:45.908Z,19.95
2017-06-09T05:16:26.440Z,19.8
2017-06-09T05:17:06.965Z,19.68
2017-06-09T05:17:47.580Z,19.77
2017-06-09T05:18:27.940Z,19.77
2017-06-09T05:19:08.440Z,19.92
2017-06-09T05:19:48.953Z,19.88
2017-06-09T05:20:29.842Z,19.95
2017-06-09T05:21:10.517Z,19.96
2017-06-09T05:21:51.501Z,20.06
2017-06-09T05:22:32.079Z,20.05
2017-06-09T05:23:12.676Z,20.17
2017-06-09T05:23:53.592Z,20.11
2017-06-09T05:24:46.016Z,20.13
2017-06-09T05:25:26.565Z,20.21
2017-06-09T05:26:07.606Z,20.35
2017-06-09T05:26:49.127Z,20.43
2017-06-09T05:27:29.643Z,20.42
2017-06-09T05:28:10.225Z,20.42
2017-06-09T05:28:50.681Z,20.5
2017-06-09T05:29:31.324Z,20.55
2017-06-09T05:30:11.759Z,20.62
2017-06-09T05:30:52.265Z,20.64
2017-06-09T05:31:32.769Z,20.64
2017-06-09T05:32:18.750Z,20.69
2017-06-09T05:32:59.261Z,20.67
2017-06-09T05:33:39.785Z,20.57
2017-06-09T05:34:20.316Z,20.59
2017-06-09T05:35:00.975Z,20.57
2017-06-09T05:35:41.323Z,20.52
2017-06-09T05:36:22.102Z,20.41
2017-06-09T05:37:02.609Z,20.42
2017-06-09T05:37:43.070Z,20.43
2017-06-09T05:38:23.597Z,20.57
2017-06-09T05:39:04.082Z,20.54
2017-06-09T05:39:44.552Z,20.62
2017-06-09T05:40:25.012Z,20.57
2017-06-09T05:41:05.515Z,20.69
2017-06-09T05:41:46.074Z,20.77
2017-06-09T05:42:26.542Z,20.72
2017-06-09T05:43:07.047Z,20.8
2017-06-09T05:43:47.679Z,20.87
2017-06-09T05:44:28.140Z,20.94
2017-06-09T05:45:08.644Z,20.99
2017-06-09T05:45:49.155Z,20.99
2017-06-09T05:46:29.777Z,20.98
2017-06-09T05:47:10.258Z,20.88
2017-06-09T05:47:50.776Z,20.92
2017-06-09T05:48:31.256Z,20.87
2017-06-09T05:49:11.805Z,20.69
2017-06-09T05:49:52.431Z,20.79
2017-06-09T05:50:32.925Z,20.77
2017-06-09T05:51:13.383Z,20.72
2017-06-09T05:51:53.896Z,20.87
2017-06-09T05:52:34.416Z,21.09
2017-06-09T05:53:14.957Z,21.14
2017-06-09T05:53:55.624Z,21.25
2017-06-09T05:54:36.138Z,21.43
2017-06-09T05:55:17.278Z,21.46
2017-06-09T05:55:58.192Z,21.61
2017-06-09T05:56:38.654Z,21.68
2017-06-09T05:57:19.179Z,21.5
2017-06-09T05:57:59.728Z,21.4
2017-06-09T05:58:40.165Z,21.46
2017-06-09T05:59:20.651Z,21.44
2017-06-09T06:00:01.191Z,21.49
2017-06-09T06:00:41.708Z,21.61
2017-06-09T06:01:22.203Z,21.58
2017-06-09T06:02:02.650Z,21.69
2017-06-09T06:02:43.266Z,21.82
2017-06-09T06:03:23.868Z,21.86
2017-06-09T06:04:04.332Z,21.79
2017-06-09T06:04:44.822Z,21.75
2017-06-09T06:05:25.294Z,21.69
2017-06-09T06:06:05.827Z,21.75
2017-06-09T06:06:46.278Z,21.79
2017-06-09T06:07:26.967Z,21.84
2017-06-09T06:08:07.482Z,21.82
2017-06-09T06:08:47.930Z,21.69
2017-06-09T06:09:28.471Z,21.79
2017-06-09T06:10:08.975Z,21.8
2017-06-09T06:10:49.433Z,21.84
2017-06-09T06:11:29.928Z,21.98
2017-06-09T06:12:10.420Z,22
2017-06-09T06:12:50.917Z,22.12
2017-06-09T06:13:31.414Z,22.14
2017-06-09T06:14:11.920Z,22.18
2017-06-09T06:14:52.468Z,22.15
2017-06-09T06:15:32.910Z,22.36
2017-06-09T06:16:13.405Z,22.6
2017-06-09T06:16:53.890Z,22.62
2017-06-09T06:17:34.398Z,22.86
2017-06-09T06:18:14.910Z,22.97
2017-06-09T06:18:55.524Z,22.97
2017-06-09T06:19:36.109Z,23.07
2017-06-09T06:20:16.597Z,23.09
2017-06-09T06:20:57.135Z,23.25
2017-06-09T06:21:37.669Z,23.23
2017-06-09T06:22:18.216Z,23.2
2017-06-09T06:22:58.714Z,23.17
2017-06-09T06:23:39.209Z,23.22
2017-06-09T06:24:19.671Z,23.2
2017-06-09T06:25:00.190Z,23.25
2017-06-09T06:25:40.690Z,23.31
2017-06-09T06:26:21.268Z,23.35
2017-06-09T06:27:01.700Z,23.2
2017-06-09T06:27:42.221Z,23.25
2017-06-09T06:28:23.046Z,23.27
2017-06-09T06:29:03.525Z,23.25
2017-06-09T06:29:43.916Z,23.25
2017-06-09T06:30:24.970Z,23.32
2017-06-09T06:31:05.159Z,23.31
2017-06-09T06:31:45.695Z,23.31
2017-06-09T06:32:26.221Z,23.33
2017-06-09T06:33:06.723Z,23.4
2017-06-09T06:33:47.344Z,23.38
2017-06-09T06:34:27.899Z,23.38
2017-06-09T06:35:08.388Z,23.38
2017-06-09T06:35:49.145Z,23.38
2017-06-09T06:36:29.677Z,23.48
2017-06-09T06:37:10.135Z,23.47
2017-06-09T06:37:50.672Z,23.35
2017-06-09T06:38:31.167Z,23.35
2017-06-09T06:39:11.658Z,23.36
2017-06-09T06:39:52.176Z,23.33
2017-06-09T06:40:32.659Z,23.42
2017-06-09T06:41:13.198Z,23.4
2017-06-09T06:41:53.709Z,23.36
2017-06-09T06:42:34.266Z,23.35
2017-06-09T06:43:14.888Z,23.33
2017-06-09T06:43:55.455Z,23.19
2017-06-09T06:44:35.882Z,23.19
2017-06-09T06:45:16.445Z,23.1
2017-06-09T06:45:56.863Z,23.12
2017-06-09T06:46:37.382Z,23.12
2017-06-09T06:47:17.886Z,23.17
2017-06-09T06:47:58.502Z,23.09
2017-06-09T06:48:39.028Z,23.13
2017-06-09T06:49:19.693Z,23.17
2017-06-09T06:50:00.194Z,23.2
2017-06-09T06:50:40.679Z,23.16
2017-06-09T06:51:21.177Z,23.13
2017-06-09T06:52:01.767Z,23.1
2017-06-09T06:52:42.248Z,22.95
2017-06-09T06:53:22.769Z,22.97
2017-06-09T06:54:03.241Z,22.85
2017-06-09T06:54:43.739Z,22.88
2017-06-09T06:55:24.326Z,22.8
2017-06-09T06:56:05.061Z,22.79
2017-06-09T06:56:45.502Z,22.94
2017-06-09T06:57:26.042Z,22.75
2017-06-09T06:58:06.542Z,22.75
2017-06-09T06:58:47.039Z,22.77
2017-06-09T06:59:27.544Z,22.75
2017-06-09T07:00:08.054Z,22.77
2017-06-09T07:00:48.554Z,22.76
2017-06-09T07:01:29.074Z,22.76
2017-06-09T07:02:09.636Z,22.54
2017-06-09T07:02:50.271Z,22.51
2017-06-09T07:03:30.815Z,22.55
2017-06-09T07:04:11.365Z,22.49
2017-06-09T07:04:51.791Z,22.65
2017-06-09T07:05:32.398Z,22.75
2017-06-09T07:06:13.000Z,22.86
2017-06-09T07:06:53.484Z,22.91
2017-06-09T07:07:34.003Z,22.98
2017-06-09T07:08:14.504Z,22.97
2017-06-09T07:08:54.982Z,23.13
2017-06-09T07:09:35.572Z,23.01
2017-06-09T07:10:16.110Z,23.02
2017-06-09T07:10:56.651Z,23.02
2017-06-09T07:11:37.158Z,23.07
2017-06-09T07:12:17.640Z,23.13
2017-06-09T07:12:58.164Z,23.12
2017-06-09T07:13:38.648Z,23.22
2017-06-09T07:14:19.309Z,23.35
2017-06-09T07:14:59.877Z,23.38
2017-06-09T07:15:40.381Z,23.47
2017-06-09T07:16:20.868Z,23.43
2017-06-09T07:17:01.333Z,23.42
2017-06-09T07:17:41.845Z,23.46
2017-06-09T07:18:22.370Z,23.33
2017-06-09T07:19:02.918Z,23.39
2017-06-09T07:19:43.391Z,23.5
2017-06-09T07:20:24.106Z,23.5
2017-06-09T07:21:06.316Z,23.43
2017-06-09T07:21:44.909Z,23.55
2017-06-09T07:22:25.459Z,23.48
2017-06-09T07:23:06.102Z,23.55
2017-06-09T07:23:46.459Z,23.63
2017-06-09T07:24:26.998Z,23.75
2017-06-09T07:25:07.489Z,23.69
2017-06-09T07:25:48.056Z,23.72
2017-06-09T07:26:28.555Z,23.83
2017-06-09T07:27:09.055Z,23.87
2017-06-09T07:27:49.541Z,23.88
2017-06-09T07:28:30.045Z,23.95
2017-06-09T07:29:10.696Z,24.13
2017-06-09T07:29:51.076Z,24.2
2017-06-09T07:30:31.637Z,24.22
2017-06-09T07:31:12.157Z,24.22
2017-06-09T07:31:52.728Z,24.35
2017-06-09T07:32:33.252Z,24.42
2017-06-09T07:33:13.704Z,24.47
2017-06-09T07:33:54.248Z,24.55
2017-06-09T07:34:35.111Z,24.77
2017-06-09T07:35:15.651Z,24.93
2017-06-09T07:35:56.268Z,24.9
2017-06-09T07:36:36.897Z,24.98
2017-06-09T07:37:17.436Z,24.9
2017-06-09T07:37:57.952Z,24.73
2017-06-09T07:38:38.422Z,24.73
2017-06-09T07:39:18.949Z,24.8
2017-06-09T07:39:59.435Z,24.81
2017-06-09T07:40:39.927Z,24.71
2017-06-09T07:41:20.417Z,24.83
2017-06-09T07:42:00.916Z,24.85
2017-06-09T07:42:41.430Z,24.91
2017-06-09T07:43:21.927Z,24.9
2017-06-09T07:44:02.473Z,24.87
2017-06-09T07:44:43.038Z,24.68
2017-06-09T07:45:23.497Z,24.55
2017-06-09T07:46:04.296Z,24.68
2017-06-09T07:46:44.772Z,24.76
2017-06-09T07:48:44.674Z,24.81
2017-06-09T07:49:25.250Z,24.76
2017-06-09T07:50:05.753Z,24.64
2017-06-09T07:50:46.285Z,24.76
2017-06-09T07:51:26.777Z,24.67
2017-06-09T07:52:07.655Z,24.58
2017-06-09T07:52:48.638Z,24.47
2017-06-09T07:53:29.674Z,24.47
2017-06-09T07:54:13.491Z,24.65
2017-06-09T07:56:28.950Z,24.8
2017-06-09T07:57:09.497Z,24.81
2017-06-09T07:57:50.017Z,24.91
2017-06-09T07:58:30.514Z,24.88
2017-06-09T07:59:10.967Z,25.15
2017-06-09T07:59:51.461Z,25.15
2017-06-09T08:00:32.018Z,25.45
2017-06-09T08:01:12.484Z,25.33
2017-06-09T08:01:52.944Z,25.5
2017-06-09T08:02:33.457Z,25.54
2017-06-09T08:03:14.511Z,25.72
2017-06-09T08:03:54.989Z,25.73
2017-06-09T08:04:35.525Z,25.83
2017-06-09T08:05:16.074Z,25.91
2017-06-09T08:05:56.574Z,25.76
2017-06-09T08:06:37.054Z,25.75
2017-06-09T08:07:17.546Z,25.62
2017-06-09T08:07:58.035Z,25.45
2017-06-09T08:08:38.627Z,25.39
2017-06-09T08:09:19.189Z,25.3
2017-06-09T08:09:59.658Z,25.23
2017-06-09T08:10:40.266Z,25.33
2017-06-09T08:11:20.659Z,25.33
2017-06-09T08:12:01.368Z,25.35
2017-06-09T08:12:41.829Z,25.35
2017-06-09T08:13:22.278Z,25.33
2017-06-09T08:14:02.809Z,25.42
2017-06-09T08:14:43.305Z,25.2
2017-06-09T08:15:23.746Z,25.3
2017-06-09T08:16:04.533Z,25.3
2017-06-09T08:16:45.069Z,25.21
2017-06-09T08:17:25.566Z,25.3
2017-06-09T08:18:06.070Z,25.32
2017-06-09T08:18:46.539Z,25.33
2017-06-09T08:19:27.068Z,25.3
2017-06-09T08:20:07.570Z,25.3
2017-06-09T08:20:47.989Z,25.43
2017-06-09T08:21:28.516Z,25.23
2017-06-09T08:22:08.995Z,25.2
2017-06-09T08:24:06.819Z,25.14
2017-06-09T08:24:47.320Z,25.03
2017-06-09T08:25:27.883Z,25.13
2017-06-09T08:26:08.360Z,25.14
2017-06-09T08:26:48.902Z,25.21
2017-06-09T08:27:29.409Z,25.32
2017-06-09T08:28:09.970Z,25.45
2017-06-09T08:28:50.783Z,25.65
2017-06-09T08:29:38.809Z,25.64
2017-06-09T08:32:05.212Z,25.75
2017-06-09T08:32:45.797Z,25.69
2017-06-09T08:33:26.324Z,25.67
2017-06-09T08:34:06.897Z,25.65
2017-06-09T08:34:47.372Z,25.62
2017-06-09T08:35:27.846Z,25.52
2017-06-09T08:36:08.439Z,25.58
2017-06-09T08:36:48.834Z,25.67
2017-06-09T08:37:29.333Z,25.76
2017-06-09T08:38:09.927Z,25.72
2017-06-09T08:38:50.350Z,25.69
2017-06-09T08:39:30.890Z,25.77
2017-06-09T08:40:11.386Z,25.73
2017-06-09T08:40:51.860Z,25.72
2017-06-09T08:41:32.406Z,25.69
2017-06-09T08:42:12.856Z,25.8
2017-06-09T08:42:53.412Z,25.77
2017-06-09T08:43:33.885Z,25.79
2017-06-09T08:44:14.398Z,25.91
2017-06-09T08:44:54.917Z,25.83
2017-06-09T08:45:35.432Z,26.02
2017-06-09T08:46:15.956Z,25.85
2017-06-09T08:46:56.450Z,26.05
2017-06-09T08:47:36.966Z,25.94
2017-06-09T08:48:17.406Z,26.06
2017-06-09T08:48:57.878Z,26.01
2017-06-09T08:49:38.395Z,25.87
2017-06-09T08:50:18.955Z,25.94